createdAt,value
2023-02-08T00:01:22.759Z,59.70
2023-02-08T00:03:54.656Z,60.61
2023-02-08T00:06:22.500Z,62.02
2023-02-08T00:08:49.985Z,61.46
2023-02-08T00:11:17.803Z,64.59
2023-02-08T00:13:45.294Z,65.17
2023-02-08T00:16:14.941Z,65.56
2023-02-08T00:18:42.741Z,66.38
2023-02-08T00:21:12.904Z,66.44
2023-02-08T00:23:40.685Z,63.97
2023-02-08T00:26:09.123Z,61.23
2023-02-08T00:28:37.391Z,59.73
2023-02-08T00:31:06.020Z,61.30
2023-02-08T00:33:33.756Z,60.77
2023-02-08T00:36:03.341Z,60.89
2023-02-08T00:38:31.450Z,59.94
2023-02-08T00:40:58.938Z,60.90
2023-02-08T00:43:26.652Z,61.98
2023-02-08T00:45:58.519Z,59.34
2023-02-08T00:48:27.926Z,59.51
2023-02-08T00:51:21.538Z,60.27
2023-02-08T00:53:50.553Z,60.75
2023-02-08T00:56:18.250Z,60.80
2023-02-08T00:58:46.455Z,61.34
2023-02-08T01:01:14.385Z,61.54
2023-02-08T01:03:44.073Z,62.58
2023-02-08T01:06:18.315Z,61.76
2023-02-08T01:08:46.117Z,61.95
2023-02-08T01:11:20.054Z,61.66
2023-02-08T01:13:50.848Z,62.99
2023-02-08T01:16:27.827Z,63.23
2023-02-08T01:18:58.216Z,62.44
2023-02-08T01:21:35.444Z,64.52
2023-02-08T01:24:06.800Z,63.52
2023-02-08T01:26:34.526Z,62.61
2023-02-08T01:29:02.329Z,63.18
2023-02-08T01:31:34.879Z,61.75
2023-02-08T01:34:03.833Z,63.78
2023-02-08T01:36:32.945Z,65.19
2023-02-08T01:39:01.451Z,64.41
2023-02-08T01:41:33.559Z,67.32
2023-02-08T01:44:12.575Z,68.36
2023-02-08T01:46:46.532Z,68.85
2023-02-08T01:49:29.517Z,67.61
2023-02-08T01:52:14.971Z,68.87
2023-02-08T01:54:56.619Z,69.73
2023-02-08T01:57:25.710Z,69.46
2023-02-08T02:00:24.327Z,69.32
2023-02-08T02:02:55.714Z,69.45
2023-02-08T02:05:30.449Z,69.15
2023-02-08T02:08:01.090Z,69.84
2023-02-08T02:10:32.449Z,69.40
2023-02-08T02:13:08.560Z,70.15
2023-02-08T02:15:36.474Z,70.27
2023-02-08T02:18:07.341Z,70.54
2023-02-08T02:20:58.798Z,71.72
2023-02-08T02:24:03.060Z,71.17
2023-02-08T02:27:08.500Z,70.79
2023-02-08T02:30:33.015Z,71.37
2023-02-08T02:33:29.873Z,70.19
2023-02-08T02:36:32.669Z,71.44
2023-02-08T02:39:27.521Z,73.69
2023-02-08T02:42:30.898Z,73.17
2023-02-08T02:45:13.449Z,74.01
2023-02-08T02:48:00.421Z,73.02
2023-02-08T02:50:44.827Z,72.58
2023-02-08T02:53:53.199Z,72.22
2023-02-08T02:56:32.384Z,74.04
2023-02-08T02:59:06.398Z,73.37
2023-02-08T03:01:34.397Z,73.00
2023-02-08T03:04:32.567Z,73.03
2023-02-08T03:07:05.468Z,73.42
2023-02-08T03:10:10.060Z,74.36
2023-02-08T03:12:58.431Z,74.71
2023-02-08T03:15:51.929Z,73.88
2023-02-08T03:18:34.540Z,74.72
2023-02-08T03:21:42.406Z,75.05
2023-02-08T03:24:23.486Z,74.84
2023-02-08T03:27:32.359Z,75.16
2023-02-08T03:30:33.292Z,75.40
2023-02-08T03:33:25.517Z,75.11
2023-02-08T03:36:23.110Z,72.63
2023-02-08T03:38:51.975Z,73.46
2023-02-08T03:41:29.611Z,74.75
2023-02-08T03:44:09.675Z,75.19
2023-02-08T03:46:55.557Z,73.94
2023-02-08T03:49:29.680Z,73.29
2023-02-08T03:52:01.816Z,73.79
2023-02-08T03:54:37.030Z,73.82
2023-02-08T03:57:27.494Z,73.70
2023-02-08T04:00:09.310Z,73.41
2023-02-08T04:03:02.056Z,73.88
2023-02-08T04:05:30.246Z,73.94
2023-02-08T04:07:57.878Z,73.93
2023-02-08T04:10:25.348Z,74.45
2023-02-08T04:12:53.315Z,73.62
2023-02-08T04:15:22.068Z,73.09
2023-02-08T04:17:49.540Z,72.80
2023-02-08T04:20:17.114Z,73.13
2023-02-08T04:22:44.654Z,73.23
2023-02-08T04:25:12.181Z,73.88
2023-02-08T04:27:39.683Z,72.89
2023-02-08T04:30:07.518Z,73.45
2023-02-08T04:32:35.092Z,75.71
2023-02-08T04:35:02.699Z,75.13
2023-02-08T04:37:30.091Z,75.03
2023-02-08T04:39:57.582Z,74.59
2023-02-08T04:42:25.097Z,74.37
2023-02-08T04:44:52.560Z,74.15
2023-02-08T04:47:20.054Z,74.43
2023-02-08T04:49:47.499Z,75.36
2023-02-08T04:52:15.042Z,73.56
2023-02-08T04:54:42.453Z,73.39
2023-02-08T04:57:14.409Z,74.47
2023-02-08T04:59:42.220Z,73.34
2023-02-08T05:02:09.946Z,71.93
2023-02-08T05:04:37.480Z,71.80
2023-02-08T05:07:05.201Z,71.71
2023-02-08T05:09:32.724Z,71.98
2023-02-08T05:12:00.303Z,72.46
2023-02-08T05:14:27.812Z,72.78
2023-02-08T05:17:01.140Z,74.57
2023-02-08T05:19:28.718Z,72.59
2023-02-08T05:21:56.184Z,72.94
2023-02-08T05:24:23.915Z,73.42
2023-02-08T05:26:53.642Z,74.03
2023-02-08T05:29:21.186Z,72.34
2023-02-08T05:31:48.736Z,74.03
2023-02-08T05:34:16.299Z,73.76
2023-02-08T05:36:43.833Z,72.85
2023-02-08T05:39:11.283Z,73.17
2023-02-08T05:41:38.781Z,73.62
2023-02-08T05:44:06.374Z,76.05
2023-02-08T05:46:35.015Z,73.89
2023-02-08T05:49:04.042Z,70.49
2023-02-08T05:51:32.891Z,69.88
2023-02-08T05:54:00.370Z,70.68
2023-02-08T05:56:28.631Z,70.32
2023-02-08T05:59:00.306Z,70.69
2023-02-08T06:01:28.208Z,69.44
2023-02-08T06:03:56.052Z,70.30
2023-02-08T06:06:23.503Z,70.11
2023-02-08T06:08:50.975Z,69.78
2023-02-08T06:11:19.816Z,70.57
2023-02-08T06:13:47.928Z,71.42
2023-02-08T06:16:17.758Z,69.75
2023-02-08T06:18:47.183Z,68.43
2023-02-08T06:21:15.988Z,68.52
2023-02-08T06:23:43.448Z,69.07
2023-02-08T06:26:11.484Z,70.55
2023-02-08T06:28:38.983Z,69.61
2023-02-08T06:31:08.454Z,68.67
2023-02-08T06:33:35.957Z,69.62
2023-02-08T06:36:03.683Z,71.49
2023-02-08T06:38:32.325Z,71.97
2023-02-08T06:40:59.805Z,70.92
2023-02-08T06:43:27.315Z,71.69
2023-02-08T06:45:54.888Z,70.01
2023-02-08T06:48:22.460Z,70.48
2023-02-08T06:50:53.663Z,71.91
2023-02-08T06:53:21.661Z,71.94
2023-02-08T06:55:52.978Z,70.91
2023-02-08T06:58:20.742Z,72.03
2023-02-08T07:00:48.438Z,72.23
2023-02-08T07:03:17.699Z,70.84
2023-02-08T07:06:03.496Z,72.83
2023-02-08T07:08:33.618Z,72.20
2023-02-08T07:11:05.655Z,73.21
2023-02-08T07:13:33.121Z,70.94
2023-02-08T07:16:00.649Z,70.55
2023-02-08T07:18:28.055Z,69.36
2023-02-08T07:20:55.512Z,67.96
2023-02-08T07:23:23.079Z,69.14
2023-02-08T07:26:09.106Z,66.19
2023-02-08T07:28:39.082Z,63.64
2023-02-08T07:31:16.367Z,61.88
2023-02-08T07:33:44.188Z,63.22
2023-02-08T07:36:12.459Z,61.99
2023-02-08T07:38:39.991Z,61.81
2023-02-08T07:41:13.974Z,60.09
2023-02-08T07:43:43.061Z,57.62
2023-02-08T07:46:18.427Z,57.72
2023-02-08T07:48:46.560Z,58.80
2023-02-08T07:51:14.346Z,60.16
2023-02-08T07:53:41.820Z,59.67
2023-02-08T07:56:10.479Z,57.47
2023-02-08T07:58:38.707Z,55.51
2023-02-08T08:01:20.942Z,55.51
2023-02-08T08:03:50.816Z,56.15
2023-02-08T08:06:20.544Z,55.23
2023-02-08T08:08:48.489Z,56.07
2023-02-08T08:11:17.743Z,54.68
2023-02-08T08:13:45.233Z,54.46
2023-02-08T08:16:13.371Z,54.18
2023-02-08T08:18:41.753Z,52.78
2023-02-08T08:21:09.488Z,51.55
2023-02-08T08:23:37.884Z,54.21
2023-02-08T08:26:20.528Z,51.86
2023-02-08T08:28:48.952Z,52.82
2023-02-08T08:31:21.743Z,51.85
2023-02-08T08:33:50.272Z,51.04
2023-02-08T08:36:17.828Z,51.14
2023-02-08T08:38:45.323Z,50.65
2023-02-08T08:41:18.003Z,49.96
2023-02-08T08:43:45.999Z,48.91
2023-02-08T08:46:15.160Z,48.43
2023-02-08T08:48:43.051Z,49.54
2023-02-08T08:51:10.582Z,49.88
2023-02-08T08:53:38.416Z,49.82
2023-02-08T08:56:06.884Z,48.26
2023-02-08T08:58:34.438Z,48.47
2023-02-08T09:01:02.369Z,48.23
2023-02-08T09:03:30.480Z,46.56
2023-02-08T09:05:58.477Z,48.01
2023-02-08T09:08:26.032Z,46.39
2023-02-08T09:10:53.577Z,46.34
2023-02-08T09:13:21.863Z,45.70
2023-02-08T09:15:50.427Z,45.65
2023-02-08T09:18:18.054Z,46.39
2023-02-08T09:20:45.799Z,46.56
2023-02-08T09:23:14.623Z,45.18
2023-02-08T09:25:42.205Z,46.21
2023-02-08T09:28:09.856Z,44.53
2023-02-08T09:30:37.362Z,44.25
2023-02-08T09:33:07.432Z,44.28
2023-02-08T09:35:34.954Z,45.04
2023-02-08T09:38:04.556Z,43.73
2023-02-08T09:40:54.807Z,43.25
2023-02-08T09:44:10.967Z,44.04
2023-02-08T09:46:43.701Z,43.99
2023-02-08T09:49:20.069Z,44.03
2023-02-08T09:51:59.024Z,42.62
2023-02-08T09:54:57.358Z,40.71
2023-02-08T09:57:31.647Z,41.78
2023-02-08T10:00:07.408Z,43.56
2023-02-08T10:02:35.236Z,43.48
2023-02-08T10:05:15.085Z,44.16
2023-02-08T10:07:43.902Z,43.01
2023-02-08T10:10:33.839Z,45.32
2023-02-08T10:13:41.535Z,43.14
2023-02-08T10:16:39.424Z,43.92
2023-02-08T10:19:40.485Z,42.12
2023-02-08T10:22:44.258Z,43.21
2023-02-08T10:25:36.229Z,42.86
2023-02-08T10:28:31.114Z,43.24
2023-02-08T10:31:41.004Z,42.02
2023-02-08T10:34:32.981Z,43.53
2023-02-08T10:37:03.982Z,43.12
2023-02-08T10:39:35.733Z,42.92
2023-02-08T10:42:09.638Z,42.41
2023-02-08T10:44:41.861Z,43.25
2023-02-08T10:47:23.387Z,41.64
2023-02-08T10:50:43.832Z,42.51
2023-02-08T10:53:28.876Z,41.54
2023-02-08T10:56:05.738Z,42.05
2023-02-08T10:58:33.911Z,40.75
2023-02-08T11:01:02.530Z,42.65
2023-02-08T11:03:32.290Z,40.24
2023-02-08T11:05:59.982Z,42.02
2023-02-08T11:08:29.349Z,39.66
2023-02-08T11:11:05.625Z,40.01
2023-02-08T11:13:47.189Z,39.00
2023-02-08T11:16:28.387Z,38.61
2023-02-08T11:19:02.152Z,37.97
2023-02-08T11:21:37.753Z,37.12
2023-02-08T11:24:47.099Z,36.82
2023-02-08T11:27:42.557Z,34.36
2023-02-08T11:30:23.507Z,33.62
2023-02-08T11:33:21.833Z,35.61
2023-02-08T11:36:11.624Z,35.85
2023-02-08T11:38:51.988Z,38.45
2023-02-08T11:41:21.880Z,38.30
2023-02-08T11:44:16.227Z,37.73
2023-02-08T11:46:48.865Z,38.60
2023-02-08T11:49:24.943Z,40.97
2023-02-08T11:51:53.345Z,40.11
2023-02-08T11:54:46.857Z,39.80
2023-02-08T11:57:27.956Z,41.09
2023-02-08T12:00:20.720Z,40.46
2023-02-08T12:02:51.598Z,38.44
2023-02-08T12:05:35.680Z,38.63
2023-02-08T12:08:25.893Z,33.64
2023-02-08T12:10:58.970Z,34.28
2023-02-08T12:13:50.559Z,32.89
2023-02-08T12:16:32.906Z,33.93
2023-02-08T12:19:56.165Z,32.38
2023-02-08T12:22:31.383Z,31.05
2023-02-08T12:25:42.563Z,31.87
2023-02-08T12:28:27.991Z,33.64
2023-02-08T12:31:46.080Z,31.14
2023-02-08T12:34:46.862Z,32.09
2023-02-08T12:37:47.974Z,32.06
2023-02-08T12:41:02.933Z,31.94
2023-02-08T12:44:02.209Z,32.42
2023-02-08T12:46:41.260Z,34.11
2023-02-08T12:49:28.232Z,32.58
2023-02-08T12:52:36.888Z,30.48
2023-02-08T12:55:26.393Z,30.94
2023-02-08T12:58:00.768Z,31.87
2023-02-08T13:00:36.339Z,32.32
2023-02-08T13:03:32.082Z,30.47
2023-02-08T13:06:02.624Z,29.30
2023-02-08T13:08:58.632Z,30.77
2023-02-08T13:11:57.219Z,32.57
2023-02-08T13:14:24.616Z,33.63
2023-02-08T13:16:59.216Z,34.14
2023-02-08T13:20:00.002Z,34.32
2023-02-08T13:22:35.165Z,34.70
2023-02-08T13:25:17.455Z,33.01
2023-02-08T13:27:46.803Z,32.78
2023-02-08T13:30:39.966Z,33.76
2023-02-08T13:34:00.917Z,32.12
2023-02-08T13:36:39.757Z,31.78
2023-02-08T13:39:33.937Z,32.15
2023-02-08T13:42:05.417Z,32.96
2023-02-08T13:44:39.715Z,33.65
2023-02-08T13:47:08.478Z,33.64
2023-02-08T13:49:50.955Z,33.22
2023-02-08T13:52:48.097Z,34.33
2023-02-08T13:55:35.806Z,33.46
2023-02-08T13:58:22.112Z,34.32
2023-02-08T14:00:56.624Z,34.31
2023-02-08T14:03:35.174Z,34.33
2023-02-08T14:06:03.774Z,34.72
2023-02-08T14:08:41.775Z,35.01
2023-02-08T14:11:40.873Z,35.51
2023-02-08T14:14:24.420Z,35.22
2023-02-08T14:17:19.464Z,35.40
2023-02-08T14:20:00.287Z,35.21
2023-02-08T14:22:39.650Z,35.87
2023-02-08T14:25:46.656Z,36.37
2023-02-08T14:28:28.158Z,37.19
2023-02-08T14:31:00.985Z,37.44
2023-02-08T14:33:56.867Z,36.90
2023-02-08T14:36:35.072Z,38.80
2023-02-08T14:39:39.802Z,40.14
2023-02-08T14:42:13.977Z,40.25
2023-02-08T14:44:42.215Z,40.28
2023-02-08T14:47:30.956Z,39.38
2023-02-08T14:50:30.088Z,40.46
2023-02-08T14:53:07.846Z,40.69
2023-02-08T14:56:03.586Z,40.49
2023-02-08T14:58:37.294Z,40.43
2023-02-08T15:01:28.560Z,39.96
2023-02-08T15:04:02.365Z,42.05
2023-02-08T15:07:13.608Z,40.13
2023-02-08T15:09:43.970Z,41.01
2023-02-08T15:12:36.065Z,42.04
2023-02-08T15:15:06.564Z,40.82
2023-02-08T15:17:46.112Z,41.60
2023-02-08T15:20:29.668Z,42.59
2023-02-08T15:23:20.613Z,42.64
2023-02-08T15:26:27.151Z,43.45
2023-02-08T15:28:59.643Z,42.25
2023-02-08T15:31:33.935Z,42.52
2023-02-08T15:34:03.554Z,42.42
2023-02-08T15:36:38.429Z,42.72
2023-02-08T15:39:39.594Z,42.81
2023-02-08T15:42:18.634Z,42.13
2023-02-08T15:44:48.633Z,43.90
2023-02-08T15:47:39.946Z,43.97
2023-02-08T15:50:18.043Z,44.21
2023-02-08T15:52:46.809Z,45.33
2023-02-08T15:55:19.276Z,44.78
2023-02-08T15:58:00.124Z,43.39
2023-02-08T16:00:36.923Z,44.34
2023-02-08T16:03:23.679Z,43.65
2023-02-08T16:06:05.676Z,43.04
2023-02-08T16:08:37.245Z,42.96
2023-02-08T16:11:12.344Z,42.59
2023-02-08T16:13:45.744Z,44.45
2023-02-08T16:16:42.806Z,44.96
2023-02-08T16:19:32.953Z,45.70
2023-02-08T16:22:28.581Z,47.30
2023-02-08T16:25:45.387Z,47.71
2023-02-08T16:28:59.947Z,49.14
2023-02-08T16:31:30.944Z,49.94
2023-02-08T16:34:17.462Z,50.27
2023-02-08T16:36:53.270Z,51.14
2023-02-08T16:40:04.934Z,51.78
2023-02-08T16:42:39.911Z,52.33
2023-02-08T16:45:22.625Z,51.72
2023-02-08T16:47:54.965Z,52.39
2023-02-08T16:50:27.881Z,53.52
2023-02-08T16:53:02.958Z,53.56
2023-02-08T16:55:37.093Z,52.61
2023-02-08T16:58:04.625Z,53.76
2023-02-08T17:00:35.507Z,53.75
2023-02-08T17:03:04.361Z,54.51
2023-02-08T17:05:39.452Z,55.15
2023-02-08T17:08:13.351Z,55.06
2023-02-08T17:10:42.409Z,55.84
2023-02-08T17:13:32.070Z,54.97
2023-02-08T17:16:20.200Z,54.74
2023-02-08T17:18:48.954Z,54.13
2023-02-08T17:21:20.675Z,53.03
2023-02-08T17:23:48.255Z,54.76
2023-02-08T17:26:20.356Z,55.18
2023-02-08T17:28:50.280Z,54.36
2023-02-08T17:31:19.175Z,53.34
2023-02-08T17:33:48.527Z,55.09
2023-02-08T17:36:19.135Z,55.06
2023-02-08T17:38:49.270Z,54.38
2023-02-08T17:41:20.454Z,53.59
2023-02-08T17:43:54.337Z,53.60
2023-02-08T17:46:25.704Z,54.78
2023-02-08T17:48:59.463Z,53.76
2023-02-08T17:51:30.481Z,54.17
2023-02-08T17:53:59.512Z,54.74
2023-02-08T17:56:29.450Z,54.53
2023-02-08T17:59:05.628Z,54.97
2023-02-08T18:01:33.600Z,53.83
2023-02-08T18:04:10.383Z,55.14
2023-02-08T18:06:38.447Z,56.31
2023-02-08T18:09:06.433Z,56.33
2023-02-08T18:11:35.690Z,55.69
2023-02-08T18:14:08.280Z,55.59
2023-02-08T18:16:37.606Z,55.69
2023-02-08T18:19:06.756Z,52.32
2023-02-08T18:21:37.580Z,51.96
2023-02-08T18:24:10.338Z,52.92
2023-02-08T18:26:43.699Z,54.84
2023-02-08T18:29:13.943Z,57.02
2023-02-08T18:31:44.660Z,58.22
2023-02-08T18:34:16.741Z,58.52
2023-02-08T18:37:10.823Z,60.49
2023-02-08T18:39:40.091Z,60.17
2023-02-08T18:42:08.090Z,59.92
2023-02-08T18:44:38.885Z,58.75
2023-02-08T18:47:09.508Z,58.93
2023-02-08T18:49:43.515Z,59.99
2023-02-08T18:52:20.388Z,60.63
2023-02-08T18:54:51.544Z,60.39
2023-02-08T18:57:21.215Z,61.46
2023-02-08T18:59:50.090Z,60.34
2023-02-08T19:02:23.451Z,61.33
2023-02-08T19:04:51.744Z,60.95
2023-02-08T19:07:26.873Z,63.23
2023-02-08T19:09:55.223Z,61.58
2023-02-08T19:12:27.422Z,63.17
2023-02-08T19:14:56.429Z,63.98
2023-02-08T19:17:24.495Z,62.69
2023-02-08T19:19:55.544Z,61.97
2023-02-08T19:22:25.906Z,61.07
2023-02-08T19:25:19.694Z,60.76
2023-02-08T19:27:59.641Z,60.66
2023-02-08T19:30:34.881Z,62.43
2023-02-08T19:33:03.618Z,58.94
2023-02-08T19:35:40.579Z,60.22
2023-02-08T19:38:10.127Z,60.76
2023-02-08T19:40:39.840Z,62.55
2023-02-08T19:43:09.923Z,63.51
2023-02-08T19:45:44.936Z,64.15
2023-02-08T19:48:15.405Z,64.69
2023-02-08T19:50:56.963Z,65.04
2023-02-08T19:53:25.008Z,65.60
2023-02-08T19:56:17.831Z,64.98
2023-02-08T19:58:48.516Z,64.77
2023-02-08T20:01:37.312Z,65.61
2023-02-08T20:04:07.090Z,63.72
2023-02-08T20:06:39.282Z,63.69
2023-02-08T20:09:12.070Z,64.55
2023-02-08T20:11:55.875Z,63.65
2023-02-08T20:14:27.990Z,66.63
2023-02-08T20:16:55.695Z,66.62
2023-02-08T20:19:23.389Z,64.91
2023-02-08T20:21:52.762Z,64.43
2023-02-08T20:24:42.588Z,66.63
2023-02-08T20:27:10.552Z,67.86
2023-02-08T20:29:42.765Z,66.02
2023-02-08T20:32:13.734Z,68.32
2023-02-08T20:34:53.941Z,69.90
2023-02-08T20:37:26.266Z,70.10
2023-02-08T20:39:53.872Z,70.00
2023-02-08T20:42:22.224Z,67.74
2023-02-08T20:44:50.075Z,70.21
2023-02-08T20:47:21.823Z,70.41
2023-02-08T20:49:51.640Z,71.33
2023-02-08T20:52:22.534Z,70.09
2023-02-08T20:54:54.352Z,69.87
2023-02-08T20:57:22.147Z,69.68
2023-02-08T20:59:53.427Z,71.53
2023-02-08T21:02:23.429Z,70.79
2023-02-08T21:04:53.160Z,67.94
2023-02-08T21:07:20.987Z,68.50
2023-02-08T21:09:48.785Z,69.21
2023-02-08T21:12:38.288Z,63.39
2023-02-08T21:15:09.736Z,63.45
2023-02-08T21:17:40.864Z,64.31
2023-02-08T21:20:10.924Z,65.70
2023-02-08T21:22:43.317Z,64.23
2023-02-08T21:25:12.233Z,63.63
2023-02-08T21:27:42.151Z,64.56
2023-02-08T21:30:11.846Z,65.60
2023-02-08T21:32:46.309Z,65.62
2023-02-08T21:35:15.103Z,64.39
2023-02-08T21:37:44.087Z,64.02
2023-02-08T21:40:31.877Z,64.12
2023-02-08T21:43:19.487Z,67.08
2023-02-08T21:45:48.383Z,67.35
2023-02-08T21:48:37.175Z,66.87
2023-02-08T21:51:25.707Z,68.19
2023-02-08T21:54:13.656Z,69.55
2023-02-08T21:56:43.119Z,70.56
2023-02-08T21:59:11.804Z,68.88
2023-02-08T22:01:41.635Z,67.30
2023-02-08T22:04:10.762Z,68.24
2023-02-08T22:06:38.301Z,69.04
2023-02-08T22:09:06.732Z,70.05
2023-02-08T22:11:34.207Z,69.73
2023-02-08T22:14:03.292Z,65.42
2023-02-08T22:16:33.111Z,63.91
2023-02-08T22:19:02.140Z,61.03
2023-02-08T22:21:29.784Z,64.87
2023-02-08T22:23:57.592Z,66.54
2023-02-08T22:26:25.747Z,68.06
2023-02-08T22:28:53.974Z,69.36
2023-02-08T22:31:23.503Z,68.82
2023-02-08T22:33:53.917Z,68.78
2023-02-08T22:36:22.383Z,69.24
2023-02-08T22:38:49.966Z,69.16
2023-02-08T22:41:18.257Z,68.37
2023-02-08T22:43:46.771Z,69.24
2023-02-08T22:46:18.570Z,67.68
2023-02-08T22:48:47.198Z,68.31
2023-02-08T22:51:18.994Z,67.30
2023-02-08T22:53:52.282Z,69.20
2023-02-08T22:56:20.223Z,69.88
2023-02-08T22:58:49.952Z,68.72
2023-02-08T23:01:25.268Z,67.92
2023-02-08T23:03:55.115Z,67.03
2023-02-08T23:06:24.289Z,69.15
2023-02-08T23:08:51.899Z,68.44
2023-02-08T23:11:21.676Z,70.52
2023-02-08T23:13:49.255Z,70.22
2023-02-08T23:16:19.141Z,69.49
2023-02-08T23:18:47.145Z,72.39
2023-02-08T23:21:20.334Z,71.31
2023-02-08T23:23:49.136Z,71.24
2023-02-08T23:26:19.840Z,71.00
2023-02-08T23:28:50.835Z,70.26
2023-02-08T23:31:18.953Z,66.73
2023-02-08T23:33:47.185Z,67.19
2023-02-08T23:36:18.444Z,67.89
2023-02-08T23:38:46.505Z,68.55
2023-02-08T23:41:20.853Z,69.10
2023-02-08T23:43:51.575Z,70.99
2023-02-08T23:46:24.189Z,72.45
2023-02-08T23:48:52.381Z,68.90
2023-02-08T23:51:22.532Z,66.33
2023-02-08T23:53:55.268Z,65.00
2023-02-08T23:56:32.453Z,66.73
2023-02-08T23:59:00.999Z,66.23
